Time;durP1;ratioP1;P1;durP2;ratioP2;P2;SDS_P1;SDS_P2;PMS_P1;PMS_P2;Temp;Humidity;BMP_temperature;BMP_pressure;BME280_temperature;BME280_humidity;BME280_pressure;Samples;Min_cycle;Max_cycle;Signal;HPM_P1;HPM_P2
2022/04/05 00:01:08;;;;;;;4.35;1.70;;;;;;;16.78;23.77;98119.78;5053252;28;20032;-67
2022/04/05 00:03:34;;;;;;;3.03;1.50;;;;;;;16.78;23.43;98117.09;5052852;28;20032;-68
2022/04/05 00:05:59;;;;;;;4.03;2.40;;;;;;;16.77;23.75;98123.47;5052581;28;20043;-66
2022/04/05 00:08:25;;;;;;;3.78;1.83;;;;;;;16.76;23.70;98125.31;5052238;28;20033;-67
2022/04/05 00:10:51;;;;;;;2.72;1.60;;;;;;;16.77;23.47;98120.78;5052565;28;20396;-66
2022/04/05 00:13:16;;;;;;;4.10;1.50;;;;;;;16.76;23.82;98119.97;5052095;28;20178;-68
2022/04/05 00:15:42;;;;;;;2.53;1.40;;;;;;;16.75;23.56;98115.66;5052595;28;20104;-67
2022/04/05 00:18:07;;;;;;;2.88;1.13;;;;;;;16.73;23.63;98117.69;5052640;28;20040;-68
2022/04/05 00:20:34;;;;;;;2.85;1.83;;;;;;;16.70;23.78;98110.06;5053191;28;20033;-67
2022/04/05 00:22:59;;;;;;;2.08;1.45;;;;;;;16.70;23.84;98114.59;5052014;28;20399;-70
2022/04/05 00:25:25;;;;;;;3.00;1.45;;;;;;;16.67;23.77;98107.81;5052467;28;20032;-68
2022/04/05 00:27:52;;;;;;;5.57;1.65;;;;;;;16.66;24.01;98116.00;5051626;28;20053;-68
2022/04/05 00:30:18;;;;;;;3.13;1.55;;;;;;;16.63;23.97;98104.69;5051983;28;20041;-69
2022/04/05 00:32:44;;;;;;;3.13;1.77;;;;;;;16.60;23.74;98105.09;5052209;28;20039;-68
2022/04/05 00:35:10;;;;;;;3.60;1.50;;;;;;;16.55;23.76;98102.19;5052504;28;20021;-69
2022/04/05 00:37:36;;;;;;;4.38;2.05;;;;;;;16.55;23.84;98101.34;5051906;28;20107;-68
2022/04/05 00:40:04;;;;;;;2.20;1.80;;;;;;;16.53;23.83;98098.88;5053671;28;20037;-70
2022/04/05 00:42:32;;;;;;;6.65;2.00;;;;;;;16.50;23.90;98096.59;5056254;28;20090;-68
2022/04/05 00:44:58;;;;;;;3.05;1.60;;;;;;;16.48;23.76;98099.47;5056652;28;20506;-68
2022/04/05 00:47:23;;;;;;;3.50;1.65;;;;;;;16.47;24.04;98100.47;5056164;28;20064;-69
2022/04/05 00:49:51;;;;;;;7.18;1.50;;;;;;;16.43;24.07;98091.19;5056045;28;20034;-67
2022/04/05 00:52:18;;;;;;;2.35;1.58;;;;;;;16.44;24.33;98095.53;5055868;28;20044;-71
2022/04/05 00:54:46;;;;;;;2.20;1.27;;;;;;;16.44;24.24;98089.38;5055422;28;20473;-69
2022/04/05 00:57:15;;;;;;;2.97;1.42;;;;;;;16.44;24.38;98090.19;5056315;28;20037;-70
2022/04/05 00:59:42;;;;;;;2.55;1.67;;;;;;;16.43;24.31;98085.88;5056129;28;20039;-70
2022/04/05 01:02:16;;;;;;;2.78;1.48;;;;;;;16.44;24.31;98081.38;5054574;28;20037;-67
2022/04/05 01:04:42;;;;;;;2.83;1.40;;;;;;;16.42;24.17;98081.53;5055556;28;20444;-70
2022/04/05 01:07:10;;;;;;;3.17;2.13;;;;;;;16.43;24.33;98072.50;5056128;28;20041;-69
2022/04/05 01:09:37;;;;;;;2.60;1.33;;;;;;;16.45;24.07;98067.81;5055641;28;20292;-69
2022/04/05 01:12:05;;;;;;;3.00;1.70;;;;;;;16.45;24.39;98075.81;5055826;28;20464;-70
2022/04/05 01:14:31;;;;;;;3.53;1.60;;;;;;;16.46;24.49;98066.78;5055253;28;20067;-69
2022/04/05 01:16:57;;;;;;;2.78;1.60;;;;;;;16.46;24.54;98069.47;5055695;28;20045;-69
2022/04/05 01:19:24;;;;;;;2.15;1.50;;;;;;;16.48;24.42;98067.44;5055522;28;20407;-69
2022/04/05 01:21:49;;;;;;;3.88;1.40;;;;;;;16.46;24.39;98065.97;5055653;28;20106;-70
2022/04/05 01:24:15;;;;;;;2.15;1.40;;;;;;;16.50;24.52;98066.41;5054894;28;20060;-69
2022/04/05 01:26:46;;;;;;;2.20;1.40;;;;;;;16.50;24.11;98050.38;5054930;28;20140;-71
2022/04/05 01:29:14;;;;;;;2.58;1.48;;;;;;;16.53;24.49;98060.69;5055290;28;20037;-69
2022/04/05 01:31:43;;;;;;;3.05;1.60;;;;;;;16.53;24.11;98055.34;5055226;28;20120;-68
2022/04/05 01:34:09;;;;;;;3.33;1.60;;;;;;;16.53;24.27;98068.69;5055268;28;20072;-69
2022/04/05 01:36:40;;;;;;;2.72;1.77;;;;;;;16.53;24.03;98060.69;5055743;28;20064;-69
2022/04/05 01:39:06;;;;;;;;;;;;;;;16.45;24.54;98064.31;5055151;28;20174;-68
2022/04/05 01:41:32;;;;;;;4.97;1.55;;;;;;;16.44;24.42;98060.00;5054955;28;19916;-69
2022/04/05 01:43:57;;;;;;;2.83;1.55;;;;;;;16.44;24.47;98055.47;5054328;28;20040;-71
2022/04/05 01:46:23;;;;;;;5.38;1.63;;;;;;;16.44;24.06;98060.81;5055073;28;20043;-70
2022/04/05 01:48:50;;;;;;;2.38;1.40;;;;;;;16.48;24.12;98055.91;5054453;28;20113;-68
2022/04/05 01:51:16;;;;;;;2.67;1.25;;;;;;;16.47;24.33;98048.91;5053818;28;20599;-70
2022/04/05 01:53:41;;;;;;;2.20;1.60;;;;;;;16.47;24.40;98041.75;5054883;28;20111;-69
2022/04/05 01:56:07;;;;;;;2.90;1.35;;;;;;;16.50;24.11;98045.03;5055323;28;20037;-68
2022/04/05 01:58:35;;;;;;;4.43;1.83;;;;;;;16.53;24.43;98042.81;5054454;28;20040;-69
2022/04/05 02:01:02;;;;;;;2.50;1.55;;;;;;;16.53;24.41;98039.31;5055314;28;20025;-68
2022/04/05 02:03:28;;;;;;;2.88;1.70;;;;;;;16.55;24.16;98038.09;5054989;28;20115;-68
2022/04/05 02:05:54;;;;;;;2.65;1.50;;;;;;;16.56;24.40;98033.56;5054957;28;20033;-69
2022/04/05 02:08:19;;;;;;;2.30;1.35;;;;;;;16.55;24.27;98029.25;5054706;28;20368;-67
2022/04/05 02:10:45;;;;;;;4.78;1.50;;;;;;;16.55;24.10;98029.25;5055016;28;20166;-68
2022/04/05 02:13:11;;;;;;;3.35;1.38;;;;;;;16.53;24.24;98031.31;5054656;28;20033;-68
2022/04/05 02:15:36;;;;;;;2.47;1.50;;;;;;;16.54;24.37;98024.94;5054843;28;20033;-68
2022/04/05 02:18:02;;;;;;;5.18;1.42;;;;;;;16.53;24.20;98018.78;5054633;28;20388;-68
2022/04/05 02:20:28;;;;;;;3.17;1.35;;;;;;;16.55;24.25;98016.75;5054617;28;20450;-68
2022/04/05 02:22:53;;;;;;;8.68;1.52;;;;;;;16.73;24.49;98024.22;5053267;28;20040;-68
2022/04/05 02:25:18;;;;;;;4.70;1.77;;;;;;;16.95;24.21;98013.47;5052200;28;20028;-68
2022/04/05 02:27:45;;;;;;;1.85;1.30;;;;;;;17.18;24.11;98018.47;5053253;28;20825;-67
2022/04/05 02:30:11;;;;;;;1.85;1.05;;;;;;;17.36;23.44;98015.22;5051619;28;20614;-69
2022/04/05 02:32:36;;;;;;;1.65;1.20;;;;;;;17.53;23.59;98014.84;5052184;28;20028;-67
2022/04/05 02:35:03;;;;;;;2.10;1.10;;;;;;;17.63;23.40;98009.09;5050624;28;20032;-69
2022/04/05 02:37:28;;;;;;;2.72;1.30;;;;;;;17.73;23.21;98016.72;5033868;28;20029;-68
2022/04/05 02:39:54;;;;;;;2.00;1.30;;;;;;;17.83;23.17;98017.16;5034059;28;20476;-69
2022/04/05 02:42:19;;;;;;;6.80;1.35;;;;;;;17.90;23.27;98009.94;5047263;28;20029;-68
2022/04/05 02:44:45;;;;;;;2.67;1.30;;;;;;;17.95;22.99;98004.78;5051760;28;20040;-68
2022/04/05 02:47:11;;;;;;;2.97;1.20;;;;;;;17.99;22.90;97998.03;5047724;28;20387;-69
2022/04/05 02:49:36;;;;;;;1.77;1.15;;;;;;;18.03;22.97;97994.91;5051951;28;20404;-69
2022/04/05 02:52:03;;;;;;;2.47;1.45;;;;;;;18.07;22.95;98001.50;5043843;28;20106;-69
2022/04/05 02:54:29;;;;;;;1.65;1.25;;;;;;;18.10;22.62;98004.59;5051711;28;20034;-69
2022/04/05 02:56:54;;;;;;;2.22;1.08;;;;;;;18.15;22.65;97998.66;5042683;28;20048;-67
2022/04/05 02:59:20;;;;;;;3.25;1.20;;;;;;;18.20;22.74;97998.00;5033761;28;20029;-68
2022/04/05 03:01:45;;;;;;;2.35;1.13;;;;;;;18.26;22.52;98002.53;5049712;28;20132;-69
2022/04/05 03:04:11;;;;;;;2.67;1.10;;;;;;;18.30;22.77;98001.91;5051163;28;20407;-69
2022/04/05 03:06:37;;;;;;;1.63;1.02;;;;;;;18.36;22.62;98004.78;5051927;28;20025;-68
2022/04/05 03:09:03;;;;;;;3.13;1.88;;;;;;;18.41;22.49;97999.63;5051309;28;20033;-68
2022/04/05 03:11:28;;;;;;;1.65;1.20;;;;;;;18.43;22.51;98006.41;5052279;28;20064;-69
2022/04/05 03:13:54;;;;;;;2.65;1.25;;;;;;;18.48;22.35;98005.78;5046684;28;20099;-68
2022/04/05 03:16:19;;;;;;;4.57;1.42;;;;;;;18.51;22.18;98002.69;5033158;28;20499;-69
2022/04/05 03:18:48;;;;;;;3.40;1.10;;;;;;;18.55;22.31;98001.22;5035628;28;20483;-68
2022/04/05 03:21:14;;;;;;;2.38;1.10;;;;;;;18.57;22.35;97996.50;5039692;28;20388;-68
2022/04/05 03:23:40;;;;;;;1.92;0.93;;;;;;;18.60;22.38;98006.75;5050900;28;20056;-68
2022/04/05 03:26:06;;;;;;;4.97;1.48;;;;;;;18.65;22.14;97997.28;5051521;28;20025;-68
2022/04/05 03:28:31;;;;;;;3.47;1.23;;;;;;;18.66;22.15;97993.56;5050544;28;20063;-68
2022/04/05 03:30:57;;;;;;;2.67;1.48;;;;;;;18.70;22.26;97992.94;5047195;28;20040;-67
2022/04/05 03:33:22;;;;;;;1.88;1.23;;;;;;;18.75;22.13;97995.81;5051560;28;20036;-68
2022/04/05 03:35:48;;;;;;;2.25;1.35;;;;;;;18.79;22.28;97996.19;5050565;28;20033;-69
2022/04/05 03:38:13;;;;;;;2.92;1.35;;;;;;;18.84;22.50;97991.03;5051212;28;20028;-68
2022/04/05 03:40:39;;;;;;;2.40;1.25;;;;;;;18.88;22.33;97999.47;5051912;28;20428;-69
2022/04/05 03:43:07;;;;;;;2.58;1.52;;;;;;;18.91;22.14;97991.00;5036886;28;20021;-69
2022/04/05 03:45:33;;;;;;;2.53;1.45;;;;;;;18.91;22.06;97985.66;5038077;28;20037;-68
2022/04/05 03:47:58;;;;;;;2.08;1.33;;;;;;;18.94;22.11;97989.75;5050260;28;20056;-68
2022/04/05 03:50:24;;;;;;;3.35;1.65;;;;;;;18.97;21.98;97989.34;5051204;28;20067;-68
2022/04/05 03:52:49;;;;;;;4.00;1.50;;;;;;;18.99;22.11;97982.72;5050647;28;20499;-69
2022/04/05 03:55:15;;;;;;;1.85;1.25;;;;;;;19.02;22.31;97990.34;5051095;28;20491;-68
2022/04/05 03:57:41;;;;;;;1.95;1.17;;;;;;;19.10;22.21;97991.16;5050779;28;20102;-68
2022/04/05 04:00:07;;;;;;;2.40;1.35;;;;;;;19.12;22.12;97983.69;5050646;28;20038;-68
2022/04/05 04:02:35;;;;;;;2.33;1.50;;;;;;;19.15;22.06;97988.63;5049079;28;20017;-68
2022/04/05 04:05:01;;;;;;;2.35;1.75;;;;;;;19.18;21.97;97988.22;5032351;28;20025;-68
2022/04/05 04:07:26;;;;;;;4.10;1.60;;;;;;;19.20;21.93;97997.69;5033297;28;20442;-68
2022/04/05 04:09:52;;;;;;;2.92;1.55;;;;;;;19.21;22.13;97983.25;5049388;28;20041;-69
2022/04/05 04:12:17;;;;;;;5.07;1.67;;;;;;;19.26;21.88;97987.13;5050775;28;20037;-69
2022/04/05 04:14:43;;;;;;;2.65;1.60;;;;;;;19.31;22.03;97984.66;5050415;28;20020;-68
2022/04/05 04:17:08;;;;;;;2.17;1.48;;;;;;;19.33;21.92;97987.94;5040768;28;20041;-69
2022/04/05 04:19:34;;;;;;;3.10;1.90;;;;;;;19.38;21.94;97985.41;5043188;28;20051;-69
2022/04/05 04:22:01;;;;;;;4.75;2.28;;;;;;;19.44;21.67;97983.72;5040509;28;20032;-68
2022/04/05 04:24:26;;;;;;;2.45;1.48;;;;;;;19.49;21.98;97992.75;5031833;28;20037;-67
2022/04/05 04:26:52;;;;;;;4.75;1.65;;;;;;;19.59;22.02;97983.44;5032129;28;20061;-69
2022/04/05 04:29:18;;;;;;;2.78;1.70;;;;;;;19.69;21.81;97981.06;5042047;28;20038;-69
2022/04/05 04:31:43;;;;;;;4.45;2.50;;;;;;;19.83;21.89;97971.06;5042299;28;20087;-69
2022/04/05 04:34:09;;;;;;;3.50;1.90;;;;;;;19.92;21.59;97985.06;5041167;28;20383;-68
2022/04/05 04:36:35;;;;;;;3.97;2.30;;;;;;;19.91;21.51;97978.06;5050364;28;20037;-68
2022/04/05 04:39:00;;;;;;;4.03;1.40;;;;;;;19.90;21.47;97979.91;5050254;28;20040;-68
2022/04/05 04:41:26;;;;;;;5.07;1.75;;;;;;;19.89;21.69;97977.44;5049598;28;20052;-68
2022/04/05 04:43:51;;;;;;;3.08;1.95;;;;;;;19.86;21.43;97981.34;5049655;28;20381;-69
2022/04/05 04:46:17;;;;;;;2.60;1.88;;;;;;;19.85;21.44;97979.72;5049536;28;20033;-68
2022/04/05 04:48:43;;;;;;;3.33;1.80;;;;;;;19.84;21.62;97975.41;5043758;28;20082;-68
2022/04/05 04:51:09;;;;;;;2.53;1.58;;;;;;;19.93;21.41;97974.09;5049821;28;20033;-69
2022/04/05 04:53:35;;;;;;;2.25;1.60;;;;;;;20.06;21.68;97978.53;5049573;28;20040;-68
2022/04/05 04:56:00;;;;;;;2.65;1.70;;;;;;;20.17;21.57;97968.09;5050200;28;20033;-69
2022/04/05 04:58:26;;;;;;;2.78;1.88;;;;;;;20.24;21.62;97976.91;5049635;28;20411;-69
2022/04/05 05:00:51;;;;;;;3.17;1.88;;;;;;;20.35;21.61;97981.56;5050296;28;20037;-67
2022/04/05 05:03:18;;;;;;;3.25;2.03;;;;;;;20.41;21.65;97972.59;5049854;28;20040;-67
2022/04/05 05:05:45;;;;;;;3.55;1.98;;;;;;;20.41;21.65;97961.84;5049469;28;20045;-67
2022/04/05 05:08:10;;;;;;;5.78;2.28;;;;;;;20.43;21.71;97958.94;5047256;28;20495;-68
2022/04/05 05:10:36;;;;;;;3.92;2.03;;;;;;;20.46;21.65;97960.34;5047398;28;20044;-66
2022/04/05 05:13:02;;;;;;;4.55;2.17;;;;;;;20.49;21.63;97957.22;5048352;28;20036;-66
2022/04/05 05:15:28;;;;;;;5.43;2.70;;;;;;;20.66;21.36;97960.13;5049909;28;20043;-65
2022/04/05 05:17:55;;;;;;;5.80;2.30;;;;;;;20.71;21.58;97966.47;5049334;28;20548;-66
2022/04/05 05:20:21;;;;;;;3.45;2.03;;;;;;;20.72;21.71;97956.53;5048997;28;20037;-66
2022/04/05 05:22:48;;;;;;;3.70;2.05;;;;;;;20.67;21.61;97959.88;5049167;28;20048;-66
2022/04/05 05:25:13;;;;;;;2.78;1.98;;;;;;;20.64;21.68;97965.72;5049874;28;20475;-66
2022/04/05 05:27:39;;;;;;;2.97;2.00;;;;;;;20.75;21.65;97969.53;5052862;28;20076;-66
2022/04/05 05:30:07;;;;;;;6.45;2.10;;;;;;;20.86;21.59;97955.34;5052440;28;20385;-67
2022/04/05 05:32:49;;;;;;;3.10;2.13;;;;;;;20.86;21.69;97958.06;5052702;28;20120;-66
2022/04/05 05:35:16;;;;;;;6.70;1.92;;;;;;;20.89;21.77;97964.84;5048080;28;20039;-68
2022/04/05 05:37:43;;;;;;;6.38;2.55;;;;;;;20.86;21.34;97960.75;5053332;28;20067;-66
2022/04/05 05:40:09;;;;;;;3.33;2.22;;;;;;;20.86;21.79;97958.06;5048621;28;20025;-66
2022/04/05 05:42:45;;;;;;;3.53;2.00;;;;;;;20.90;21.90;97947.66;5049576;28;20157;-67
2022/04/05 05:45:10;;;;;;;3.85;2.15;;;;;;;20.93;21.83;97947.22;5053869;28;20040;-67
2022/04/05 05:47:36;;;;;;;2.28;1.58;;;;;;;20.96;21.72;97944.03;5052639;28;20043;-67
2022/04/05 05:50:02;;;;;;;3.67;2.28;;;;;;;20.99;21.87;97943.59;5052810;28;20110;-68
2022/04/05 05:52:27;;;;;;;3.58;1.70;;;;;;;21.03;22.09;97943.94;5045294;28;20040;-67
2022/04/05 05:54:53;;;;;;;4.80;2.40;;;;;;;21.06;22.08;97943.50;5052742;28;20033;-68
2022/04/05 05:57:18;;;;;;;3.85;2.30;;;;;;;21.12;21.98;97939.06;5047392;28;20064;-67
2022/04/05 05:59:44;;;;;;;3.97;2.00;;;;;;;21.14;21.93;97943.19;5051600;28;20037;-66
2022/04/05 06:02:09;;;;;;;3.95;2.33;;;;;;;21.15;22.00;97935.94;5052067;28;20045;-67
2022/04/05 06:04:35;;;;;;;4.57;2.08;;;;;;;21.17;21.77;97942.75;5052841;28;20036;-70
2022/04/05 06:07:00;;;;;;;4.40;2.03;;;;;;;21.16;22.05;97937.56;5051330;28;20040;-68
2022/04/05 06:09:26;;;;;;;4.90;2.50;;;;;;;21.18;22.02;97938.97;5052145;28;20114;-68
2022/04/05 06:11:51;;;;;;;5.65;1.88;;;;;;;21.21;22.16;97931.50;5034285;28;20037;-68
2022/04/05 06:14:17;;;;;;;4.95;2.47;;;;;;;21.24;22.15;97933.75;5052494;28;20036;-69
2022/04/05 06:16:42;;;;;;;3.97;1.70;;;;;;;21.26;22.28;97924.38;5048846;28;20041;-67
2022/04/05 06:19:08;;;;;;;3.80;2.38;;;;;;;21.29;22.00;97928.50;5049689;28;20032;-68
2022/04/05 06:21:33;;;;;;;4.22;2.33;;;;;;;21.27;22.21;97925.22;5050675;28;20037;-67
2022/04/05 06:23:59;;;;;;;3.10;1.92;;;;;;;21.31;22.04;97927.22;5050477;28;20048;-67
2022/04/05 06:26:24;;;;;;;3.30;2.15;;;;;;;21.32;22.17;97918.09;5052504;28;20048;-67
2022/04/05 06:28:49;;;;;;;6.32;2.50;;;;;;;21.38;22.18;97916.34;5044339;28;20041;-68
2022/04/05 06:31:15;;;;;;;6.15;2.97;;;;;;;21.39;22.12;97917.97;5049729;28;20068;-67
2022/04/05 06:33:40;;;;;;;3.60;2.10;;;;;;;21.40;22.08;97918.78;5052007;28;20040;-68
2022/04/05 06:36:06;;;;;;;3.55;2.13;;;;;;;21.41;21.85;97928.50;5052158;28;20086;-68
2022/04/05 06:38:31;;;;;;;5.28;2.22;;;;;;;21.40;21.91;97914.25;5051025;28;20171;-67
2022/04/05 06:40:59;;;;;;;4.85;2.50;;;;;;;21.41;21.76;97912.34;5033945;28;20032;-67
2022/04/05 06:43:25;;;;;;;3.47;2.28;;;;;;;21.45;21.85;97921.63;5052141;28;20051;-68
2022/04/05 06:45:51;;;;;;;3.90;2.10;;;;;;;21.47;21.55;97919.53;5051425;28;20044;-68
2022/04/05 06:48:17;;;;;;;3.63;2.50;;;;;;;21.49;21.70;97923.59;5027705;28;20461;-68
2022/04/05 06:50:43;;;;;;;5.60;3.00;;;;;;;21.50;21.87;97922.56;5051571;28;20033;-68
2022/04/05 06:53:09;;;;;;;3.45;2.30;;;;;;;21.52;21.86;97916.13;5051544;28;20037;-67
2022/04/05 06:55:36;;;;;;;4.60;2.20;;;;;;;21.53;21.91;97915.91;5051080;28;20028;-68
2022/04/05 06:58:02;;;;;;;3.83;2.10;;;;;;;21.54;21.88;97928.31;5051689;28;20051;-68
2022/04/05 07:00:28;;;;;;;4.53;2.17;;;;;;;21.56;21.76;97910.03;5051255;28;20036;-68
2022/04/05 07:02:55;;;;;;;3.33;1.77;;;;;;;21.57;22.05;97914.38;5049064;28;20515;-67
2022/04/05 07:05:21;;;;;;;4.47;2.45;;;;;;;21.57;21.78;97905.50;5051215;28;20037;-65
2022/04/05 07:07:47;;;;;;;2.58;1.80;;;;;;;21.56;21.63;97906.56;5051429;28;20068;-67
2022/04/05 07:10:19;;;;;;;2.40;2.00;;;;;;;21.58;21.63;97897.19;5032803;28;20511;-66
2022/04/05 07:12:46;;;;;;;3.55;2.25;;;;;;;21.60;21.66;97892.41;5048397;28;20065;-65
2022/04/05 07:15:11;;;;;;;3.92;2.05;;;;;;;21.65;21.82;97889.03;5042397;28;20379;-66
2022/04/05 07:17:37;;;;;;;5.78;2.00;;;;;;;;;;5050511;28;20041;-65
2022/04/05 07:20:07;;;;;;;4.45;1.98;;;;;;;21.72;21.77;97878.13;5048480;28;20033;-65
2022/04/05 07:22:33;;;;;;;4.53;2.05;;;;;;;21.75;21.65;97883.91;5050254;28;20053;-66
2022/04/05 07:24:58;;;;;;;5.50;2.13;;;;;;;21.77;21.66;97867.50;5051345;28;20028;-68
2022/04/05 07:27:23;;;;;;;5.40;2.05;;;;;;;21.78;21.75;97877.22;5050974;28;20504;-66
2022/04/05 07:29:49;;;;;;;4.53;1.90;;;;;;;21.79;21.83;97874.28;5050197;28;20095;-66
2022/04/05 07:32:15;;;;;;;3.20;2.05;;;;;;;21.78;21.81;97867.25;5050866;28;20490;-66
2022/04/05 07:34:40;;;;;;;5.00;2.20;;;;;;;21.82;21.67;97873.00;5047435;28;20028;-66
2022/04/05 07:37:05;;;;;;;2.45;1.83;;;;;;;21.84;22.29;97870.06;5051221;28;20040;-67
2022/04/05 07:39:31;;;;;;;3.38;1.48;;;;;;;21.94;22.65;97873.81;5050444;28;20484;-66
2022/04/05 07:41:57;;;;;;;3.88;1.88;;;;;;;22.04;22.68;97880.47;5041679;28;20026;-68
2022/04/05 07:44:23;;;;;;;2.42;1.45;;;;;;;22.11;22.86;97870.41;5050302;28;20156;-66
2022/04/05 07:46:49;;;;;;;2.67;1.25;;;;;;;22.18;23.01;97865.69;5048542;28;20123;-67
2022/04/05 07:49:14;;;;;;;3.67;1.73;;;;;;;22.23;23.13;97863.09;5047255;28;20025;-67
2022/04/05 07:51:40;;;;;;;3.38;1.70;;;;;;;22.27;23.11;97862.63;5049154;28;20033;-68
2022/04/05 07:54:05;;;;;;;4.70;1.83;;;;;;;22.34;23.24;97869.53;5046140;28;20475;-67
2022/04/05 07:56:31;;;;;;;2.60;1.40;;;;;;;22.38;23.38;97859.09;5050908;28;20404;-66
2022/04/05 07:58:57;;;;;;;3.63;1.95;;;;;;;22.43;22.83;97851.09;5050236;28;20033;-66
2022/04/05 08:01:24;;;;;;;4.13;1.77;;;;;;;22.45;22.71;97854.38;5049980;28;20111;-66
2022/04/05 08:03:50;;;;;;;2.05;1.35;;;;;;;22.46;22.84;97852.53;5049609;28;20381;-66
2022/04/05 08:06:15;;;;;;;1.85;1.45;;;;;;;22.48;22.61;97845.84;5050192;28;20041;-66
2022/04/05 08:08:41;;;;;;;3.08;1.95;;;;;;;22.49;22.29;97850.16;5049860;28;20117;-66
2022/04/05 08:11:06;;;;;;;3.13;1.60;;;;;;;22.49;22.20;97849.38;5049800;28;20112;-66
2022/04/05 08:13:32;;;;;;;4.35;2.20;;;;;;;22.49;22.04;97850.16;5046134;28;20488;-66
2022/04/05 08:15:57;;;;;;;3.58;1.90;;;;;;;22.48;22.07;97839.63;5050669;28;20391;-66
2022/04/05 08:18:23;;;;;;;6.05;2.40;;;;;;;22.48;21.69;97835.06;5049829;28;20556;-67
2022/04/05 08:20:49;;;;;;;4.18;1.90;;;;;;;22.47;21.45;97835.31;5049268;28;20029;-67
2022/04/05 08:23:14;;;;;;;3.20;2.33;;;;;;;22.46;21.52;97829.06;5049974;28;20033;-66
2022/04/05 08:25:40;;;;;;;2.13;1.52;;;;;;;22.47;21.45;97841.50;5050285;28;20044;-66
2022/04/05 08:28:06;;;;;;;4.10;2.38;;;;;;;22.47;21.33;97832.59;5049175;28;20585;-66
2022/04/05 08:30:31;;;;;;;3.15;2.28;;;;;;;22.48;21.23;97826.97;5050340;28;20083;-69
2022/04/05 08:32:57;;;;;;;4.53;2.33;;;;;;;22.47;21.14;97825.31;5046845;28;20064;-66
2022/04/05 08:35:24;;;;;;;3.25;2.20;;;;;;;22.49;21.36;97809.75;5044716;28;20060;-67
2022/04/05 08:37:51;;;;;;;2.97;2.17;;;;;;;22.50;21.13;97824.84;5050237;28;20060;-66
2022/04/05 08:40:19;;;;;;;3.38;1.63;;;;;;;22.53;21.51;97810.91;5050322;28;20072;-66
2022/04/05 08:42:47;;;;;;;2.45;1.40;;;;;;;22.57;21.47;97834.69;5033615;28;20029;-67
2022/04/05 08:45:16;;;;;;;3.58;1.67;;;;;;;22.61;21.52;97822.34;5049185;28;20036;-66
2022/04/05 08:47:52;;;;;;;2.03;1.20;;;;;;;22.62;21.65;97808.63;5049339;28;20039;-65
2022/04/05 08:50:20;;;;;;;4.22;1.73;;;;;;;22.65;21.39;97818.91;5042816;28;20036;-67
2022/04/05 08:52:47;;;;;;;3.22;1.70;;;;;;;22.69;21.33;97803.09;5047762;28;20041;-67
2022/04/05 08:55:14;;;;;;;4.13;2.03;;;;;;;22.72;21.38;97816.06;5033806;28;20503;-66
2022/04/05 08:57:40;;;;;;;4.57;2.00;;;;;;;22.75;21.55;97815.59;5049809;28;20044;-66
2022/04/05 09:00:08;;;;;;;3.97;2.20;;;;;;;22.79;21.50;97821.34;5049373;28;20032;-66
2022/04/05 09:02:33;;;;;;;3.55;1.73;;;;;;;22.78;21.48;97812.41;5051443;28;20036;-69
2022/04/05 09:04:59;;;;;;;3.55;1.80;;;;;;;22.78;21.05;97804.31;5047891;28;20514;-66
2022/04/05 09:07:37;;;;;;;5.18;1.92;;;;;;;22.81;21.01;97803.00;5053626;28;20033;-66
2022/04/05 09:10:16;;;;;;;4.28;1.92;;;;;;;22.81;20.91;97814.63;5053457;28;20098;-66
2022/04/05 09:12:47;;;;;;;3.53;1.80;;;;;;;22.82;20.87;97818.97;5045987;28;20028;-68
2022/04/05 09:15:18;;;;;;;2.63;1.60;;;;;;;22.81;20.57;97803.84;5050651;28;20037;-66
2022/04/05 09:17:46;;;;;;;3.75;1.85;;;;;;;22.81;20.84;97803.84;5049172;28;20045;-68
2022/04/05 09:20:13;;;;;;;4.53;1.75;;;;;;;22.66;21.08;97804.38;5052994;28;20033;-65
2022/04/05 09:22:39;;;;;;;3.38;1.85;;;;;;;22.37;21.99;97792.78;5053126;28;20178;-65
2022/04/05 09:25:07;;;;;;;2.55;1.35;;;;;;;22.15;22.17;97800.69;5051071;28;20111;-66
2022/04/05 09:27:49;;;;;;;2.83;1.60;;;;;;;21.97;22.11;97791.72;5050549;28;20049;-66
2022/04/05 09:30:18;;;;;;;;;;;;;;;21.72;22.35;97786.63;5052317;28;20044;-65
2022/04/05 09:32:48;;;;;;;4.50;1.65;;;;;;;21.51;22.47;97796.94;5052400;28;20007;-68
2022/04/05 09:35:16;;;;;;;2.80;1.77;;;;;;;21.37;22.43;97792.84;5054199;28;20037;-64
2022/04/05 09:37:42;;;;;;;9.27;1.77;;;;;;;21.21;22.50;97787.09;5053161;28;20173;-68
2022/04/05 09:40:34;;;;;;;7.45;1.80;;;;;;;21.13;22.51;97787.44;5053703;28;20116;-68
2022/04/05 09:43:22;;;;;;;3.55;2.17;;;;;;;21.00;22.73;97778.53;5046531;28;20044;-68
2022/04/05 09:45:55;;;;;;;2.42;1.40;;;;;;;20.92;22.63;97778.88;5052535;28;20056;-69
2022/04/05 09:48:31;;;;;;;2.92;1.60;;;;;;;20.82;22.69;97779.44;5052394;28;20032;-65
2022/04/05 09:51:06;;;;;;;4.20;1.77;;;;;;;20.77;22.63;97773.13;5054256;28;20094;-66
2022/04/05 09:53:52;;;;;;;3.42;1.67;;;;;;;20.68;22.89;97761.84;5040218;28;20041;-67
2022/04/05 09:56:19;;;;;;;2.97;1.98;;;;;;;20.67;22.68;97773.66;5041415;28;20056;-66
2022/04/05 09:58:52;;;;;;;2.97;1.70;;;;;;;20.67;22.83;97755.66;5053188;28;20478;-65
2022/04/05 10:01:19;;;;;;;1.83;1.33;;;;;;;20.68;22.85;97759.16;5051285;28;20040;-66
2022/04/05 10:04:11;;;;;;;2.53;1.60;;;;;;;20.63;23.35;97751.81;5051189;28;20037;-67
2022/04/05 10:06:39;;;;;;;;;;;;;;;20.57;23.15;97766.16;5049008;28;20029;-67
2022/04/05 10:09:06;;;;;;;4.95;1.70;;;;;;;20.54;23.37;97745.94;5051229;28;19952;-68
2022/04/05 10:11:35;;;;;;;5.15;1.90;;;;;;;20.57;23.19;97750.84;5052765;28;20040;-69
2022/04/05 10:14:02;;;;;;;3.78;1.70;;;;;;;20.57;22.96;97758.91;5047538;28;20539;-66
2022/04/05 10:16:29;;;;;;;2.75;1.27;;;;;;;20.58;22.89;97760.56;5052980;28;20041;-69
2022/04/05 10:19:00;;;;;;;4.18;1.63;;;;;;;20.56;22.72;97759.13;5053121;28;20041;-69
2022/04/05 10:21:28;;;;;;;6.03;1.85;;;;;;;20.52;22.98;97741.81;5050612;28;20065;-68
2022/04/05 10:23:56;;;;;;;3.70;1.60;;;;;;;20.46;22.87;97748.13;5053322;28;20040;-69
2022/04/05 10:26:28;;;;;;;4.20;1.58;;;;;;;20.39;22.63;97751.72;5053894;28;20047;-67
2022/04/05 10:28:56;;;;;;;3.00;1.83;;;;;;;20.39;22.69;97738.28;5052347;28;20056;-68
2022/04/05 10:31:57;;;;;;;2.95;1.67;;;;;;;20.41;22.73;97738.88;5053568;28;20060;-69
2022/04/05 10:34:34;;;;;;;4.77;1.80;;;;;;;20.40;22.63;97742.63;5053393;28;20036;-70
2022/04/05 10:37:16;;;;;;;2.88;1.55;;;;;;;20.35;22.78;97742.50;5053614;28;20037;-69
2022/04/05 10:39:42;;;;;;;1.88;1.35;;;;;;;20.38;22.76;97736.66;5053950;28;20040;-67
2022/04/05 10:42:08;;;;;;;3.50;1.88;;;;;;;20.42;22.51;97737.84;5053516;28;20028;-67
2022/04/05 10:44:35;;;;;;;3.53;1.77;;;;;;;20.41;22.67;97728.13;5045688;28;20024;-69
2022/04/05 10:47:04;;;;;;;2.25;1.50;;;;;;;20.39;22.48;97734.78;5053639;28;20047;-66
2022/04/05 10:49:37;;;;;;;4.13;1.50;;;;;;;20.36;22.61;97728.03;5052765;28;20033;-68
2022/04/05 10:52:15;;;;;;;3.80;1.70;;;;;;;20.35;22.37;97734.44;5044055;28;21821;-68
2022/04/05 10:55:06;;;;;;;2.20;1.38;;;;;;;20.33;22.34;97728.47;5053519;28;20044;-68
2022/04/05 10:57:34;;;;;;;;;;;;;;;20.18;22.34;97720.03;5038062;28;20496;-68
2022/04/05 11:00:12;;;;;;;2.22;1.50;;;;;;;20.16;22.45;97716.75;5052765;28;20019;-68
2022/04/05 11:02:38;;;;;;;3.55;1.60;;;;;;;20.12;22.23;97711.81;5026614;28;20075;-67
2022/04/05 11:05:24;;;;;;;2.25;1.55;;;;;;;20.09;22.46;97711.47;5053040;28;20613;-68
2022/04/05 11:07:58;;;;;;;3.10;1.58;;;;;;;20.06;22.52;97718.13;5051578;28;20041;-68
2022/04/05 11:10:30;;;;;;;2.42;1.40;;;;;;;20.07;22.34;97726.97;5053412;28;20047;-68
2022/04/05 11:13:15;;;;;;;;;;;;;;;19.97;22.53;97716.78;5053371;28;20513;-67
2022/04/05 11:15:53;;;;;;;2.67;1.33;;;;;;;19.93;22.37;97710.22;5034676;28;20299;-68
2022/04/05 11:18:33;;;;;;;2.72;1.30;;;;;;;19.92;22.46;97705.91;5052649;28;20079;-68
2022/04/05 11:21:00;;;;;;;2.03;1.35;;;;;;;19.90;22.30;97721.41;5052649;28;20037;-69
2022/04/05 11:23:46;;;;;;;2.35;1.40;;;;;;;19.90;22.23;97708.81;5053176;28;20086;-69
2022/04/05 11:26:26;;;;;;;3.78;1.83;;;;;;;19.90;22.36;97708.81;5051925;28;20481;-69
2022/04/05 11:28:51;;;;;;;4.97;1.90;;;;;;;19.86;22.37;97704.09;5050231;28;20060;-68
2022/04/05 11:31:29;;;;;;;1.85;1.45;;;;;;;19.85;22.38;97707.81;5052755;28;20403;-69
2022/04/05 11:33:54;;;;;;;3.15;1.65;;;;;;;19.86;22.18;97709.47;5045007;28;20045;-69
2022/04/05 11:36:23;;;;;;;4.53;1.83;;;;;;;19.85;22.33;97699.78;5034534;28;20031;-67